Time;durP1;ratioP1;P1;durP2;ratioP2;P2;SDS_P1;SDS_P2;PMS_P1;PMS_P2;Temp;Humidity;BMP_temperature;BMP_pressure;BME280_temperature;BME280_humidity;BME280_pressure;Samples;Min_cycle;Max_cycle;Signal;HPM_P1;HPM_P2
2022/08/23 00:01:12;;;;;;;9.43;4.82;;;;;;;;;;6120571;23;20169;-90
2022/08/23 00:04:20;;;;;;;8.85;5.00;;;;;;;;;;6120880;23;20166;-87
2022/08/23 00:07:26;;;;;;;9.23;5.13;;;;;;;;;;6120857;23;20149;-88
2022/08/23 00:10:33;;;;;;;9.13;5.00;;;;;;;;;;6120776;23;20173;-89
2022/08/23 00:13:38;;;;;;;6.30;4.85;;;;;;;;;;6121197;23;20217;-87
2022/08/23 00:16:43;;;;;;;8.82;5.00;;;;;;;;;;6120928;23;20173;-87
2022/08/23 00:19:48;;;;;;;8.07;4.20;;;;;;;;;;6119400;23;20497;-84
2022/08/23 00:22:53;;;;;;;9.95;4.72;;;;;;;;;;6120152;23;20173;-88
2022/08/23 00:26:03;;;;;;;9.35;4.43;;;;;;;;;;6119153;23;20508;-88
2022/08/23 00:29:08;;;;;;;8.82;4.18;;;;;;;;;;6120229;23;20604;-87
2022/08/23 00:32:15;;;;;;;10.65;4.55;;;;;;;;;;6119255;23;20178;-87
2022/08/23 00:35:21;;;;;;;11.43;4.47;;;;;;;;;;6119178;23;20169;-87
2022/08/23 00:38:26;;;;;;;6.55;4.45;;;;;;;;;;6120364;23;20145;-88
2022/08/23 00:41:34;;;;;;;8.02;5.15;;;;;;;;;;6120082;23;20173;-86
2022/08/23 00:48:04;;;;;;;7.03;4.78;;;;;;;;;;6119585;23;20212;-89
2022/08/23 00:51:11;;;;;;;9.10;4.95;;;;;;;;;;6118699;23;20248;-86
2022/08/23 00:54:17;;;;;;;7.65;4.93;;;;;;;;;;6116357;23;20304;-88
2022/08/23 00:57:24;;;;;;;10.48;4.63;;;;;;;;;;6118353;23;20177;-87
2022/08/23 01:00:29;;;;;;;8.88;4.68;;;;;;;;;;6118323;23;20173;-88
2022/08/23 01:03:35;;;;;;;8.85;5.25;;;;;;;;;;6117421;23;20173;-86
2022/08/23 01:06:44;;;;;;;8.57;5.00;;;;;;;;;;6116509;23;20181;-88
2022/08/23 01:09:50;;;;;;;9.32;5.35;;;;;;;;;;6116278;23;20197;-88
2022/08/23 01:13:00;;;;;;;9.18;4.82;;;;;;;;;;6115607;23;20197;-87
2022/08/23 01:16:08;;;;;;;10.85;4.43;;;;;;;;;;6117057;23;20168;-88
2022/08/23 01:19:17;;;;;;;6.38;4.40;;;;;;;;;;6117710;23;20189;-88
2022/08/23 01:22:23;;;;;;;7.72;4.43;;;;;;;;;;6115991;23;20203;-88
2022/08/23 01:25:31;;;;;;;11.18;4.50;;;;;;;;;;6117764;23;20226;-90
2022/08/23 01:28:38;;;;;;;9.98;4.28;;;;;;;;;;6117256;23;20185;-88
2022/08/23 01:31:43;;;;;;;8.35;4.28;;;;;;;;;;6118101;23;20157;-87
2022/08/23 01:34:48;;;;;;;7.38;4.53;;;;;;;;;;6117583;23;20188;-87
2022/08/23 01:37:53;;;;;;;10.23;5.03;;;;;;;;;;6117593;23;20177;-88
2022/08/23 01:41:00;;;;;;;10.02;4.65;;;;;;;;;;6118852;23;20714;-87
2022/08/23 01:44:05;;;;;;;7.65;4.80;;;;;;;;;;6117407;23;20177;-88
2022/08/23 01:47:12;;;;;;;6.75;4.80;;;;;;;;;;6118518;23;20173;-88
2022/08/23 01:50:17;;;;;;;7.57;4.50;;;;;;;;;;6119639;23;20173;-90
2022/08/23 01:53:23;;;;;;;8.68;4.50;;;;;;;;;;6117748;23;20228;-89
2022/08/23 01:56:30;;;;;;;7.07;4.80;;;;;;;;;;6118508;23;20661;-88
2022/08/23 01:59:35;;;;;;;7.05;4.43;;;;;;;;;;6118134;23;20180;-88
2022/08/23 02:02:40;;;;;;;10.13;5.10;;;;;;;;;;6116237;23;20169;-89
2022/08/23 02:05:46;;;;;;;10.18;4.80;;;;;;;;;;6117597;23;20177;-87
2022/08/23 02:09:03;;;;;;;6.03;4.53;;;;;;;;;;6116973;23;20537;-88
2022/08/23 02:12:12;;;;;;;7.63;4.90;;;;;;;;;;6133925;23;20173;-89
2022/08/23 02:15:18;;;;;;;10.07;5.20;;;;;;;;;;6117042;23;20193;-87
2022/08/23 02:18:25;;;;;;;8.48;5.07;;;;;;;;;;6116476;23;20169;-87
2022/08/23 02:21:31;;;;;;;9.73;4.60;;;;;;;;;;6117297;23;20177;-89
2022/08/23 02:24:35;;;;;;;10.23;4.85;;;;;;;;;;6116313;23;20165;-87
2022/08/23 02:27:43;;;;;;;7.07;4.53;;;;;;;;;;6115041;23;20177;-89
2022/08/23 02:30:50;;;;;;;10.55;4.63;;;;;;;;;;6114903;23;20313;-91
2022/08/23 02:33:55;;;;;;;6.75;4.65;;;;;;;;;;6114949;23;20213;-89
2022/08/23 02:37:01;;;;;;;6.13;4.32;;;;;;;;;;6115546;23;20197;-88
2022/08/23 02:40:07;;;;;;;7.75;4.85;;;;;;;;;;6116164;23;20213;-89
2022/08/23 02:43:13;;;;;;;7.50;4.72;;;;;;;;;;6117218;23;20253;-89
2022/08/23 02:46:20;;;;;;;7.38;4.50;;;;;;;;;;6117858;23;20165;-88
2022/08/23 02:49:25;;;;;;;7.30;4.50;;;;;;;;;;6116631;23;20180;-88
2022/08/23 02:52:30;;;;;;;12.65;5.32;;;;;;;;;;6116230;23;20512;-87
2022/08/23 02:55:35;;;;;;;7.78;4.90;;;;;;;;;;6116852;23;20664;-88
2022/08/23 02:58:44;;;;;;;9.20;5.50;;;;;;;;;;6119727;23;20173;-87
2022/08/23 03:01:50;;;;;;;13.23;5.75;;;;;;;;;;6117904;23;20173;-90
2022/08/23 03:05:04;;;;;;;9.05;4.60;;;;;;;;;;6117932;23;20177;-87
2022/08/23 03:08:11;;;;;;;9.77;4.93;;;;;;;;;;6116887;23;20621;-86
2022/08/23 03:11:24;;;;;;;6.72;4.88;;;;;;;;;;6116656;23;20228;-89
2022/08/23 03:14:32;;;;;;;12.18;4.65;;;;;;;;;;6114975;23;20197;-90
2022/08/23 03:17:37;;;;;;;9.43;5.05;;;;;;;;;;6115494;23;20172;-87
2022/08/23 03:20:47;;;;;;;12.45;5.53;;;;;;;;;;6116538;23;20173;-90
2022/08/23 03:23:53;;;;;;;11.95;5.60;;;;;;;;;;6115974;23;20285;-90
2022/08/23 03:26:58;;;;;;;7.68;4.80;;;;;;;;;;6116428;23;20738;-91
2022/08/23 03:30:05;;;;;;;10.23;5.10;;;;;;;;;;6116997;23;20244;-88
2022/08/23 03:33:11;;;;;;;6.35;4.88;;;;;;;;;;6115998;23;20365;-88
2022/08/23 03:36:16;;;;;;;8.73;5.30;;;;;;;;;;6117397;23;20170;-86
2022/08/23 03:39:21;;;;;;;8.30;5.50;;;;;;;;;;6115614;23;20169;-87
2022/08/23 03:42:26;;;;;;;14.30;5.47;;;;;;;;;;6116619;23;20194;-87
2022/08/23 03:45:33;;;;;;;8.27;5.18;;;;;;;;;;6116377;23;20301;-89
2022/08/23 03:48:38;;;;;;;6.60;5.00;;;;;;;;;;6115781;23;20175;-88
2022/08/23 03:51:44;;;;;;;7.57;5.15;;;;;;;;;;6116636;23;20169;-88
2022/08/23 03:54:49;;;;;;;9.63;5.57;;;;;;;;;;6115270;23;20664;-87
2022/08/23 03:57:54;;;;;;;6.97;5.55;;;;;;;;;;6115638;23;20165;-89
2022/08/23 04:01:21;;;;;;;7.88;4.90;;;;;;;;;;6115233;23;20616;-88
2022/08/23 04:04:27;;;;;;;9.95;5.35;;;;;;;;;;6114553;23;20248;-89
2022/08/23 04:07:53;;;;;;;11.15;5.40;;;;;;;;;;6134764;23;20178;-89
2022/08/23 04:11:01;;;;;;;9.45;5.63;;;;;;;;;;6115219;23;20177;-87
2022/08/23 04:14:07;;;;;;;11.90;6.05;;;;;;;;;;6115186;23;20197;-89
2022/08/23 04:17:16;;;;;;;12.77;5.93;;;;;;;;;;6114833;23;20177;-87
2022/08/23 04:20:23;;;;;;;12.60;5.40;;;;;;;;;;6115969;23;20165;-87
2022/08/23 04:23:35;;;;;;;9.57;5.75;;;;;;;;;;6117096;23;20173;-91
2022/08/23 04:26:41;;;;;;;7.68;5.35;;;;;;;;;;6116903;23;20173;-88
2022/08/23 04:29:45;;;;;;;11.18;5.82;;;;;;;;;;6116831;23;20181;-88
2022/08/23 04:32:50;;;;;;;9.35;5.75;;;;;;;;;;6117035;23;20177;-89
2022/08/23 04:35:57;;;;;;;7.80;5.47;;;;;;;;;;6117593;23;20200;-86
2022/08/23 04:39:03;;;;;;;9.20;5.57;;;;;;;;;;6119570;23;20549;-89
2022/08/23 04:42:21;;;;;;;8.00;5.32;;;;;;;;;;6118082;23;20173;-89
2022/08/23 04:45:27;;;;;;;8.55;5.65;;;;;;;;;;6120463;23;20250;-89
2022/08/23 04:48:34;;;;;;;10.85;5.72;;;;;;;;;;6118827;23;20718;-87
2022/08/23 04:51:41;;;;;;;8.77;5.65;;;;;;;;;;6117654;23;20176;-87
2022/08/23 04:54:47;;;;;;;7.88;5.18;;;;;;;;;;6118873;23;20188;-87
2022/08/23 04:58:10;;;;;;;11.48;5.32;;;;;;;;;;6137516;23;20153;-86
2022/08/23 05:01:24;;;;;;;10.15;5.32;;;;;;;;;;6119732;23;20173;-90
2022/08/23 05:04:30;;;;;;;9.65;5.05;;;;;;;;;;6119992;23;20245;-87
2022/08/23 05:07:39;;;;;;;13.05;4.90;;;;;;;;;;6119709;23;20621;-88
2022/08/23 05:10:45;;;;;;;9.63;4.65;;;;;;;;;;6121619;23;20181;-88
2022/08/23 05:13:50;;;;;;;9.27;4.55;;;;;;;;;;6118475;23;20165;-88
2022/08/23 05:16:55;;;;;;;8.20;4.78;;;;;;;;;;6120845;23;20221;-88
2022/08/23 05:20:01;;;;;;;6.30;4.75;;;;;;;;;;6118262;23;20257;-87
2022/08/23 05:23:08;;;;;;;6.72;4.38;;;;;;;;;;6118108;23;20248;-89
2022/08/23 05:26:20;;;;;;;9.10;4.90;;;;;;;;;;6120815;23;20891;-88
2022/08/23 05:29:25;;;;;;;11.70;4.80;;;;;;;;;;6118019;23;20170;-88
2022/08/23 05:32:30;;;;;;;8.68;4.30;;;;;;;;;;6118049;23;20246;-88
2022/08/23 05:35:35;;;;;;;9.57;4.60;;;;;;;;;;6116796;23;20317;-91
2022/08/23 05:38:44;;;;;;;8.20;4.45;;;;;;;;;;6118842;23;20201;-87
2022/08/23 05:41:51;;;;;;;10.07;4.40;;;;;;;;;;6120048;23;20174;-89
2022/08/23 05:44:56;;;;;;;10.77;4.40;;;;;;;;;;6118810;23;20244;-88
2022/08/23 05:48:02;;;;;;;10.52;4.45;;;;;;;;;;6117900;23;20302;-89
2022/08/23 05:51:28;;;;;;;9.15;4.80;;;;;;;;;;6122660;23;20199;-87
2022/08/23 05:54:35;;;;;;;9.60;4.57;;;;;;;;;;6120258;23;20325;-85
2022/08/23 05:57:55;;;;;;;14.00;4.90;;;;;;;;;;6121887;23;20168;-88
2022/08/23 06:01:00;;;;;;;8.70;4.53;;;;;;;;;;6122002;23;20176;-89
2022/08/23 06:04:07;;;;;;;11.77;5.65;;;;;;;;;;6122287;23;20168;-89
2022/08/23 06:07:12;;;;;;;8.48;4.68;;;;;;;;;;6123948;23;20221;-89
2022/08/23 06:10:20;;;;;;;10.95;4.47;;;;;;;;;;6121665;23;20205;-88
2022/08/23 06:13:31;;;;;;;7.53;4.63;;;;;;;;;;6124161;23;20174;-90
2022/08/23 06:16:38;;;;;;;11.55;5.00;;;;;;;;;;6117801;23;20164;-88
2022/08/23 06:19:43;;;;;;;8.02;4.63;;;;;;;;;;6120434;23;20224;-88
2022/08/23 06:23:10;;;;;;;10.32;5.50;;;;;;;;;;6120508;23;20172;-86
2022/08/23 06:26:18;;;;;;;12.27;5.10;;;;;;;;;;6119274;23;20196;-89
2022/08/23 06:29:23;;;;;;;10.20;4.93;;;;;;;;;;6120213;23;20169;-87
2022/08/23 06:32:41;;;;;;;8.93;5.15;;;;;;;;;;6119218;23;20630;-87
2022/08/23 06:36:24;;;;;;;14.15;6.22;;;;;;;;;;6047639;23;20199;-87
2022/08/23 06:39:52;;;;;;;9.27;5.18;;;;;;;;;;6042571;23;20261;-87
2022/08/23 06:43:19;;;;;;;10.82;5.40;;;;;;;;;;6118657;23;20165;-88
2022/08/23 06:46:40;;;;;;;10.48;5.47;;;;;;;;;;6119545;23;20173;-87
2022/08/23 06:49:46;;;;;;;11.15;5.18;;;;;;;;;;6119979;23;20189;-88
2022/08/23 06:52:52;;;;;;;10.07;5.00;;;;;;;;;;6118964;23;20197;-87
2022/08/23 06:56:04;;;;;;;11.25;5.15;;;;;;;;;;6119432;23;20194;-89
2022/08/23 06:59:43;;;;;;;8.07;5.22;;;;;;;;;;6136555;23;20506;-87
2022/08/23 07:03:09;;;;;;;11.43;5.68;;;;;;;;;;6137809;23;20170;-88
2022/08/23 07:06:37;;;;;;;11.18;5.22;;;;;;;;;;6137938;23;20188;-88
2022/08/23 07:09:42;;;;;;;11.63;5.00;;;;;;;;;;6118933;23;20169;-87
2022/08/23 07:12:47;;;;;;;11.27;4.75;;;;;;;;;;6118754;23;20176;-89
2022/08/23 07:15:57;;;;;;;9.93;4.80;;;;;;;;;;6119002;23;20196;-89
2022/08/23 07:19:02;;;;;;;9.32;4.80;;;;;;;;;;6120276;23;20173;-88
2022/08/23 07:22:08;;;;;;;8.63;5.03;;;;;;;;;;6118479;23;20189;-89
2022/08/23 07:25:13;;;;;;;9.23;5.00;;;;;;;;;;6118641;23;20173;-88
2022/08/23 07:28:20;;;;;;;10.38;4.28;;;;;;;;;;6119525;23;20169;-87
2022/08/23 07:31:29;;;;;;;6.53;4.25;;;;;;;;;;6120566;23;20190;-87
2022/08/23 07:34:35;;;;;;;6.22;4.00;;;;;;;;;;6120871;23;20190;-87
2022/08/23 07:37:41;;;;;;;11.02;4.32;;;;;;;;;;6122928;23;20177;-87
2022/08/23 07:40:47;;;;;;;10.25;4.90;;;;;;;;;;6121552;23;20270;-87
2022/08/23 07:43:53;;;;;;;8.55;4.20;;;;;;;;;;6121263;23;20177;-88
2022/08/23 07:47:01;;;;;;;8.60;3.80;;;;;;;;;;6118414;23;20298;-85
2022/08/23 07:50:07;;;;;;;6.50;3.95;;;;;;;;;;6121469;23;20181;-87
2022/08/23 07:53:13;;;;;;;5.53;3.88;;;;;;;;;;6120048;23;20196;-87
2022/08/23 07:56:20;;;;;;;6.30;3.58;;;;;;;;;;6138963;23;20197;-87
2022/08/23 07:59:51;;;;;;;8.98;4.05;;;;;;;;;;6138318;23;20241;-88
2022/08/23 08:03:16;;;;;;;9.02;3.60;;;;;;;;;;6136821;23;20169;-88
2022/08/23 08:06:47;;;;;;;8.15;4.07;;;;;;;;;;6119928;23;20176;-86
2022/08/23 08:09:52;;;;;;;9.45;3.50;;;;;;;;;;6121763;23;20231;-88
2022/08/23 08:12:58;;;;;;;6.88;3.10;;;;;;;;;;6120556;23;20578;-88
2022/08/23 08:16:03;;;;;;;8.00;3.42;;;;;;;;;;6118102;23;20200;-88
2022/08/23 08:19:15;;;;;;;6.20;3.10;;;;;;;;;;6119484;23;20212;-87
2022/08/23 08:22:59;;;;;;;7.97;3.70;;;;;;;;;;6047853;23;20179;-86
2022/08/23 08:26:24;;;;;;;9.05;3.45;;;;;;;;;;6059863;23;20223;-88
2022/08/23 08:29:33;;;;;;;8.27;3.00;;;;;;;;;;6122209;23;20231;-87
2022/08/23 08:32:39;;;;;;;8.80;3.35;;;;;;;;;;6118762;23;20173;-88
2022/08/23 08:35:48;;;;;;;7.03;3.33;;;;;;;;;;6118992;23;20201;-87
2022/08/23 08:38:54;;;;;;;4.70;3.03;;;;;;;;;;6119616;23;20185;-87
2022/08/23 08:42:08;;;;;;;5.68;3.33;;;;;;;;;;6119524;23;20213;-87
2022/08/23 08:45:17;;;;;;;6.95;2.83;;;;;;;;;;6119393;23;20196;-88
2022/08/23 08:48:24;;;;;;;6.38;2.60;;;;;;;;;;6119225;23;20169;-87
2022/08/23 08:51:37;;;;;;;4.82;2.80;;;;;;;;;;6119039;23;20169;-88
2022/08/23 08:54:44;;;;;;;6.57;2.80;;;;;;;;;;6118991;23;20170;-87
2022/08/23 08:57:49;;;;;;;10.50;3.17;;;;;;;;;;6118781;23;20184;-89
2022/08/23 09:00:55;;;;;;;4.72;2.70;;;;;;;;;;6118871;23;20254;-88
2022/08/23 09:04:01;;;;;;;8.35;2.75;;;;;;;;;;6119104;23;20486;-88
2022/08/23 09:07:12;;;;;;;8.02;3.60;;;;;;;;;;6119180;23;20287;-87
2022/08/23 09:10:24;;;;;;;4.65;2.50;;;;;;;;;;6119478;23;20217;-87
2022/08/23 09:13:56;;;;;;;7.82;2.28;;;;;;;;;;6118465;23;20197;-87
2022/08/23 09:17:04;;;;;;;6.25;2.70;;;;;;;;;;6119541;23;20209;-88
2022/08/23 09:20:10;;;;;;;3.92;2.17;;;;;;;;;;6119889;23;20168;-87
2022/08/23 09:23:20;;;;;;;4.78;2.42;;;;;;;;;;6120350;23;20217;-88
2022/08/23 09:26:29;;;;;;;5.53;2.78;;;;;;;;;;6120554;23;20177;-87
2022/08/23 09:29:36;;;;;;;5.95;2.92;;;;;;;;;;6120290;23;20173;-87
2022/08/23 09:32:42;;;;;;;5.13;2.45;;;;;;;;;;6120473;23;20168;-89
2022/08/23 09:36:04;;;;;;;5.35;2.22;;;;;;;;;;6119660;23;20240;-89
2022/08/23 09:39:28;;;;;;;4.50;2.25;;;;;;;;;;6120957;23;20169;-88
2022/08/23 09:42:36;;;;;;;4.00;2.22;;;;;;;;;;6117402;23;20173;-87
2022/08/23 09:45:43;;;;;;;3.55;2.40;;;;;;;;;;6121791;23;20185;-89
2022/08/23 09:48:49;;;;;;;4.68;2.10;;;;;;;;;;6118966;23;20185;-88
2022/08/23 09:52:02;;;;;;;4.45;2.40;;;;;;;;;;6119787;23;20176;-89
2022/08/23 09:55:11;;;;;;;6.75;2.13;;;;;;;;;;6119837;23;20614;-87
2022/08/23 09:58:23;;;;;;;5.28;2.40;;;;;;;;;;6119749;23;20173;-88
2022/08/23 10:01:38;;;;;;;3.85;1.92;;;;;;;;;;6119809;23;20173;-88
2022/08/23 10:04:57;;;;;;;3.80;2.55;;;;;;;;;;6120066;23;20202;-87
2022/08/23 10:08:03;;;;;;;4.93;2.13;;;;;;;;;;6120868;23;20213;-88
2022/08/23 10:11:17;;;;;;;4.40;2.17;;;;;;;;;;6120027;23;20624;-89
2022/08/23 10:14:23;;;;;;;3.67;1.80;;;;;;;;;;6120915;23;20181;-88
2022/08/23 10:17:33;;;;;;;6.95;1.77;;;;;;;;;;6120861;23;20201;-87
2022/08/23 10:20:42;;;;;;;2.25;1.60;;;;;;;;;;6122328;23;20212;-88
2022/08/23 10:23:53;;;;;;;4.22;1.83;;;;;;;;;;6122267;23;20214;-87
2022/08/23 10:30:41;;;;;;;5.15;2.00;;;;;;;;;;6120396;23;20197;-87
2022/08/23 10:33:49;;;;;;;3.45;2.17;;;;;;;;;;6119702;23;20177;-88
2022/08/23 10:37:01;;;;;;;4.28;1.80;;;;;;;;;;6119209;23;20276;-88
2022/08/23 10:40:11;;;;;;;2.47;1.50;;;;;;;;;;6118382;23;20197;-88
2022/08/23 10:43:24;;;;;;;3.45;1.98;;;;;;;;;;6118967;23;20172;-88
2022/08/23 10:46:31;;;;;;;3.25;1.60;;;;;;;;;;6118607;23;20157;-90
2022/08/23 10:49:38;;;;;;;3.25;1.50;;;;;;;;;;6121470;23;20173;-88
2022/08/23 10:52:50;;;;;;;3.08;1.52;;;;;;;;;;6119791;23;20197;-91
2022/08/23 10:56:03;;;;;;;3.22;1.52;;;;;;;;;;6119103;23;20193;-89
2022/08/23 10:59:19;;;;;;;4.07;1.42;;;;;;;;;;6118676;23;20189;-89
2022/08/23 11:02:30;;;;;;;4.35;1.60;;;;;;;;;;6119126;23;20168;-89
2022/08/23 11:06:07;;;;;;;5.22;1.52;;;;;;;;;;6120715;23;20177;-88
2022/08/23 11:09:43;;;;;;;4.30;1.63;;;;;;;;;;6120034;23;20548;-90
2022/08/23 11:12:54;;;;;;;4.53;1.77;;;;;;;;;;6004979;23;20176;-88
2022/08/23 11:16:02;;;;;;;1.42;1.23;;;;;;;;;;6120231;23;20345;-89
2022/08/23 11:19:12;;;;;;;2.65;1.35;;;;;;;;;;6120425;23;20173;-89
2022/08/23 11:22:21;;;;;;;2.65;1.30;;;;;;;;;;6122576;23;20222;-90
2022/08/23 11:25:40;;;;;;;4.28;1.60;;;;;;;;;;6120558;23;20165;-89
2022/08/23 11:28:46;;;;;;;3.55;1.73;;;;;;;;;;6118588;23;20169;-89
2022/08/23 11:32:00;;;;;;;2.70;1.75;;;;;;;;;;6121855;23;20248;-88
2022/08/23 11:35:10;;;;;;;3.00;1.85;;;;;;;;;;6122515;23;20220;-89
2022/08/23 11:38:18;;;;;;;4.60;1.60;;;;;;;;;;6119938;23;20208;-89
2022/08/23 11:41:27;;;;;;;7.82;1.80;;;;;;;;;;6120944;23;20169;-90
2022/08/23 11:48:08;;;;;;;6.15;2.65;;;;;;;;;;6118975;23;20280;-88
2022/08/23 11:51:19;;;;;;;6.05;2.65;;;;;;;;;;6121659;23;20193;-91
2022/08/23 11:54:29;;;;;;;6.20;2.90;;;;;;;;;;6118473;23;20185;-90
2022/08/23 11:57:45;;;;;;;5.57;2.80;;;;;;;;;;6118931;23;20196;-89
2022/08/23 12:01:11;;;;;;;4.25;2.78;;;;;;;;;;6119822;23;20712;-88
2022/08/23 12:04:32;;;;;;;6.65;2.85;;;;;;;;;;6120446;23;20189;-89
2022/08/23 12:07:45;;;;;;;4.18;2.40;;;;;;;;;;6119721;23;20625;-90
2022/08/23 12:11:01;;;;;;;6.75;2.40;;;;;;;;;;6120900;23;20177;-89
2022/08/23 12:14:21;;;;;;;3.97;2.83;;;;;;;;;;6118595;23;20169;-88
2022/08/23 12:17:45;;;;;;;4.80;2.40;;;;;;;;;;6118315;23;20193;-88
2022/08/23 12:20:51;;;;;;;5.20;2.55;;;;;;;;;;6119574;23;20176;-89
2022/08/23 12:23:58;;;;;;;9.98;2.72;;;;;;;;;;6119195;23;20501;-91
2022/08/23 12:27:09;;;;;;;4.55;2.50;;;;;;;;;;6120549;23;20306;-89
2022/08/23 12:30:21;;;;;;;5.60;2.75;;;;;;;;;;6117765;23;20177;-89
2022/08/23 12:33:31;;;;;;;3.00;1.70;;;;;;;;;;6119295;23;20180;-88
2022/08/23 12:36:43;;;;;;;3.97;2.08;;;;;;;;;;6119125;23;20193;-90
2022/08/23 12:39:51;;;;;;;2.38;1.88;;;;;;;;;;6120599;23;20177;-89
2022/08/23 12:43:03;;;;;;;5.40;2.15;;;;;;;;;;6119224;23;20173;-88
2022/08/23 12:46:09;;;;;;;6.35;2.08;;;;;;;;;;6120092;23;20173;-86
2022/08/23 12:49:24;;;;;;;3.42;1.95;;;;;;;;;;6121596;23;20177;-88
2022/08/23 12:52:34;;;;;;;2.80;2.00;;;;;;;;;;6122165;23;20192;-91
2022/08/23 12:55:40;;;;;;;4.82;2.28;;;;;;;;;;6120020;23;20267;-88
2022/08/23 12:58:47;;;;;;;5.85;1.80;;;;;;;;;;6121855;23;20217;-87
2022/08/23 13:01:53;;;;;;;4.53;2.25;;;;;;;;;;6122362;23;20174;-88
2022/08/23 13:05:03;;;;;;;7.72;4.10;;;;;;;;;;6123209;23;20185;-88
2022/08/23 13:08:13;;;;;;;6.53;2.08;;;;;;;;;;6124770;23;20180;-90
2022/08/23 13:11:19;;;;;;;5.53;2.45;;;;;;;;;;6126880;23;20493;-88
2022/08/23 13:14:27;;;;;;;7.43;2.80;;;;;;;;;;6124123;23;20168;-87
2022/08/23 13:17:35;;;;;;;14.15;8.32;;;;;;;;;;6121763;23;20188;-87
2022/08/23 13:20:41;;;;;;;3.90;2.20;;;;;;;;;;6121734;23;20221;-90
2022/08/23 13:23:47;;;;;;;4.97;2.20;;;;;;;;;;6122837;23;20165;-89
2022/08/23 13:26:52;;;;;;;4.95;2.15;;;;;;;;;;6123137;23;20168;-89
2022/08/23 13:29:58;;;;;;;4.45;2.28;;;;;;;;;;6121850;23;20209;-88
2022/08/23 13:33:20;;;;;;;4.60;2.05;;;;;;;;;;6122199;23;20185;-90
2022/08/23 13:36:25;;;;;;;4.72;2.28;;;;;;;;;;6123929;23;20197;-90
2022/08/23 13:39:34;;;;;;;6.32;2.40;;;;;;;;;;6121891;23;20184;-87
2022/08/23 13:42:47;;;;;;;5.88;2.72;;;;;;;;;;6124055;23;20319;-90
2022/08/23 13:45:55;;;;;;;3.75;2.70;;;;;;;;;;6121506;23;20173;-87
2022/08/23 13:49:01;;;;;;;8.05;3.20;;;;;;;;;;6122557;23;20173;-88
2022/08/23 13:52:10;;;;;;;6.10;3.20;;;;;;;;;;6121937;23;20217;-88
2022/08/23 13:55:17;;;;;;;5.47;2.80;;;;;;;;;;6121731;23;20718;-89
2022/08/23 13:58:27;;;;;;;3.97;2.85;;;;;;;;;;6122076;23;20193;-90
2022/08/23 14:01:33;;;;;;;4.65;2.85;;;;;;;;;;6119899;23;20177;-89
2022/08/23 14:04:43;;;;;;;4.03;2.72;;;;;;;;;;6122300;23;20173;-89
2022/08/23 14:07:51;;;;;;;5.65;2.78;;;;;;;;;;6122789;23;20169;-90
2022/08/23 14:10:58;;;;;;;3.83;2.20;;;;;;;;;;6122674;23;20189;-89
2022/08/23 14:14:04;;;;;;;5.40;2.55;;;;;;;;;;6121689;23;20177;-90
2022/08/23 14:17:11;;;;;;;3.28;2.22;;;;;;;;;;6122230;23;20200;-89
2022/08/23 14:20:17;;;;;;;5.10;2.50;;;;;;;;;;6139393;23;20181;-89
2022/08/23 14:23:22;;;;;;;6.82;2.20;;;;;;;;;;6122817;23;20185;-88
2022/08/23 14:26:29;;;;;;;6.03;2.53;;;;;;;;;;6123577;23;20170;-89
2022/08/23 14:29:34;;;;;;;3.25;2.20;;;;;;;;;;6121556;23;20223;-89
2022/08/23 14:32:39;;;;;;;4.32;2.35;;;;;;;;;;6119915;23;20225;-88
2022/08/23 14:35:45;;;;;;;4.88;2.60;;;;;;;;;;6120933;23;20165;-89
2022/08/23 14:38:50;;;;;;;7.32;2.30;;;;;;;;;;6123554;23;20217;-87
2022/08/23 14:41:58;;;;;;;4.82;2.55;;;;;;;;;;6123767;23;20169;-88
2022/08/23 14:45:05;;;;;;;3.47;2.15;;;;;;;;;;6122289;23;20533;-90
2022/08/23 14:48:15;;;;;;;4.97;2.33;;;;;;;;;;6126208;23;20170;-88
2022/08/23 14:51:25;;;;;;;4.88;2.40;;;;;;;;;;6121758;23;20270;-91
2022/08/23 14:54:40;;;;;;;3.20;2.20;;;;;;;;;;6120395;23;20188;-89
2022/08/23 14:57:47;;;;;;;5.32;2.80;;;;;;;;;;6123827;23;20445;-90
2022/08/23 15:00:53;;;;;;;4.13;2.15;;;;;;;;;;6123782;23;20173;-90
2022/08/23 15:04:00;;;;;;;3.83;1.98;;;;;;;;;;6124126;23;20194;-89
2022/08/23 15:07:06;;;;;;;4.00;2.22;;;;;;;;;;6122336;23;20206;-90
2022/08/23 15:10:12;;;;;;;2.92;2.00;;;;;;;;;;6123240;23;20152;-88
2022/08/23 15:13:19;;;;;;;5.10;1.95;;;;;;;;;;6124856;23;20261;-89
2022/08/23 15:16:25;;;;;;;4.00;2.35;;;;;;;;;;6122548;23;20177;-89
2022/08/23 15:19:30;;;;;;;5.25;2.00;;;;;;;;;;6121892;23;20168;-89
2022/08/23 15:22:35;;;;;;;2.80;2.13;;;;;;;;;;6122467;23;20242;-89
2022/08/23 15:25:42;;;;;;;3.38;2.20;;;;;;;;;;6121158;23;20502;-89
2022/08/23 15:28:49;;;;;;;2.97;2.03;;;;;;;;;;6122365;23;20190;-87
2022/08/23 15:31:55;;;;;;;4.57;2.20;;;;;;;;;;6121548;23;20177;-89
2022/08/23 15:35:00;;;;;;;3.30;2.20;;;;;;;;;;6120463;23;20169;-90
2022/08/23 15:38:05;;;;;;;5.22;2.60;;;;;;;;;;6120578;23;20193;-89
2022/08/23 15:41:11;;;;;;;7.05;2.40;;;;;;;;;;6119139;23;20705;-91
2022/08/23 15:44:34;;;;;;;4.10;2.33;;;;;;;;;;6118617;23;20617;-88
2022/08/23 15:51:06;;;;;;;3.78;1.90;;;;;;;;;;6120852;23;20169;-92
2022/08/23 15:54:12;;;;;;;4.20;2.40;;;;;;;;;;6120957;23;20233;-89
2022/08/23 15:57:19;;;;;;;5.00;2.30;;;;;;;;;;6121374;23;20765;-88
2022/08/23 16:00:25;;;;;;;4.80;2.60;;;;;;;;;;6120787;23;20338;-88
2022/08/23 16:03:32;;;;;;;4.63;2.50;;;;;;;;;;6121526;23;20188;-89
2022/08/23 16:06:39;;;;;;;3.17;2.30;;;;;;;;;;6121716;23;20173;-88
2022/08/23 16:09:44;;;;;;;5.78;2.28;;;;;;;;;;6122700;23;20173;-88
2022/08/23 16:12:49;;;;;;;5.00;2.38;;;;;;;;;;6120460;23;20205;-88
2022/08/23 16:15:55;;;;;;;5.72;2.40;;;;;;;;;;6120347;23;20168;-88
2022/08/23 16:19:01;;;;;;;5.25;4.13;;;;;;;;;;6119830;23;20192;-90
2022/08/23 16:22:07;;;;;;;4.32;2.47;;;;;;;;;;6119770;23;20178;-88
2022/08/23 16:25:12;;;;;;;7.28;2.58;;;;;;;;;;6120155;23;20169;-88
2022/08/23 16:28:17;;;;;;;5.72;2.38;;;;;;;;;;6107017;23;20284;-89
2022/08/23 16:31:28;;;;;;;4.97;2.65;;;;;;;;;;6121972;23;20188;-89
2022/08/23 16:34:35;;;;;;;2.97;2.50;;;;;;;;;;6121479;23;20169;-90
2022/08/23 16:37:40;;;;;;;5.53;2.53;;;;;;;;;;6122051;23;20625;-89
2022/08/23 16:40:45;;;;;;;5.90;2.70;;;;;;;;;;6120830;23;20657;-87
2022/08/23 16:43:50;;;;;;;3.60;2.20;;;;;;;;;;6121865;23;20172;-89
2022/08/23 16:47:00;;;;;;;3.42;2.40;;;;;;;;;;6120764;23;20162;-88
2022/08/23 16:50:08;;;;;;;3.58;2.38;;;;;;;;;;6120678;23;20209;-86
2022/08/23 16:53:14;;;;;;;2.95;2.17;;;;;;;;;;6119437;23;20244;-90
2022/08/23 16:56:20;;;;;;;4.93;2.22;;;;;;;;;;6119391;23;20169;-90
2022/08/23 16:59:25;;;;;;;3.05;2.10;;;;;;;;;;6121123;23;20197;-88
2022/08/23 17:02:32;;;;;;;3.08;2.30;;;;;;;;;;6120903;23;20193;-89
2022/08/23 17:05:39;;;;;;;9.48;3.60;;;;;;;;;;6122347;23;20253;-89
2022/08/23 17:08:44;;;;;;;5.22;2.50;;;;;;;;;;6121522;23;20248;-90
2022/08/23 17:11:49;;;;;;;3.70;2.28;;;;;;;;;;6121154;23;20164;-89
2022/08/23 17:14:56;;;;;;;3.17;2.42;;;;;;;;;;6120082;23;20168;-89
2022/08/23 17:18:01;;;;;;;4.10;2.30;;;;;;;;;;6123272;23;20204;-87
2022/08/23 17:21:09;;;;;;;6.18;2.58;;;;;;;;;;6121849;23;20172;-89
2022/08/23 17:24:14;;;;;;;5.47;2.28;;;;;;;;;;6120142;23;20172;-88
2022/08/23 17:27:19;;;;;;;4.68;2.70;;;;;;;;;;6120437;23;20173;-89
2022/08/23 17:30:25;;;;;;;5.05;2.25;;;;;;;;;;6119151;23;20516;-88
2022/08/23 17:33:30;;;;;;;5.90;2.72;;;;;;;;;;6120230;23;20225;-88
2022/08/23 17:36:38;;;;;;;4.60;2.45;;;;;;;;;;6118742;23;20697;-89
2022/08/23 17:39:42;;;;;;;4.72;2.92;;;;;;;;;;6120287;23;20172;-87
2022/08/23 17:42:47;;;;;;;4.50;2.38;;;;;;;;;;6120802;23;20279;-87
2022/08/23 17:46:22;;;;;;;3.60;2.60;;;;;;;;;;6119390;23;20169;-88
2022/08/23 17:49:28;;;;;;;4.88;2.60;;;;;;;;;;6120938;23;20153;-88
2022/08/23 17:52:34;;;;;;;2.75;2.20;;;;;;;;;;6119279;23;20263;-88
2022/08/23 17:55:40;;;;;;;4.65;2.70;;;;;;;;;;6121724;23;20174;-88
2022/08/23 17:58:45;;;;;;;4.78;2.63;;;;;;;;;;6121222;23;20196;-90
2022/08/23 18:01:50;;;;;;;2.97;2.38;;;;;;;;;;6137703;23;20517;-88
2022/08/23 18:04:55;;;;;;;3.67;2.40;;;;;;;;;;6120626;23;20168;-89
2022/08/23 18:08:02;;;;;;;2.97;2.22;;;;;;;;;;6121090;23;20173;-89
2022/08/23 18:11:07;;;;;;;3.30;2.40;;;;;;;;;;6120515;23;20173;-86
2022/08/23 18:14:12;;;;;;;4.40;2.60;;;;;;;;;;6119989;23;20153;-89
2022/08/23 18:17:17;;;;;;;3.25;2.22;;;;;;;;;;6120302;23;20245;-89
2022/08/23 18:20:23;;;;;;;4.63;2.33;;;;;;;;;;6117556;23;20170;-89
2022/08/23 18:23:29;;;;;;;2.78;2.35;;;;;;;;;;6118511;23;20181;-90
2022/08/23 18:29:58;;;;;;;4.55;2.17;;;;;;;;;;6118284;23;20491;-88
2022/08/23 18:33:03;;;;;;;4.97;2.30;;;;;;;;;;6115248;23;20603;-90
2022/08/23 18:36:08;;;;;;;3.17;2.20;;;;;;;;;;6116999;23;20156;-88
2022/08/23 18:39:16;;;;;;;4.63;2.40;;;;;;;;;;6123233;23;20192;-88
2022/08/23 18:42:32;;;;;;;4.80;2.60;;;;;;;;;;6127608;23;20641;-88
2022/08/23 18:46:03;;;;;;;4.00;2.35;;;;;;;;;;6130322;23;20170;-88
2022/08/23 18:49:10;;;;;;;5.20;2.50;;;;;;;;;;6126846;23;20601;-90
2022/08/23 18:52:15;;;;;;;4.07;2.50;;;;;;;;;;6124441;23;20248;-90
2022/08/23 18:55:22;;;;;;;4.55;2.58;;;;;;;;;;6123239;23;20236;-90
2022/08/23 18:58:28;;;;;;;4.40;3.15;;;;;;;;;;6125142;23;20192;-89
2022/08/23 19:01:37;;;;;;;4.10;2.40;;;;;;;;;;6125062;23;20531;-89
2022/08/23 19:04:42;;;;;;;9.75;3.00;;;;;;;;;;6119358;23;20290;-89
2022/08/23 19:07:47;;;;;;;4.65;3.28;;;;;;;;;;6117087;23;20217;-90